Impacts TAF Board
For situational awareness. Not to be used for flight planning purposes.
IDs:

KMGW - Morgantown Muni, WV, US

Issued at 1720 UTC 01 Feb 2023
Updated at 2319 UTC 01 Feb 2023
Potential Impact None Slight Moderate High
Time2253Z 02/00Z 02/01Z 02/02Z 02/03Z 02/04Z 02/05Z 02/06Z 02/07Z 02/08Z 02/09Z 02/10Z 02/11Z 02/12Z>>
Type OBS PRVL PRVL PRVL PRVL PRVL PRVL PRVL PRVL PRVL PRVL PRVL PRVL PRVL
VIS 10 >6 >6 >6 >6 >6 >6 >6 >6 >6 >6 >6 >6 >6
CIG -- -- -- 250 250 250 250 250 250 250 250 250 250 250
Cover CLR SCT SCT BKN BKN BKN BKN BKN BKN BKN BKN BKN BKN BKN
FltCat VFR VFR VFR VFR VFR VFR VFR VFR VFR VFR VFR VFR VFR VFR
WX -- -- -- -- -- -- -- -- -- -- -- -- -- --
WDir VRB 280 280 200 200 200 200 200 200 200 200 200 200 200
WSpd 0 5 5 5 5 5 5 5 5 5 5 5 5 5
WGst -- -- -- -- -- -- -- -- -- -- -- -- -- --
WSHgt -- -- -- -- -- -- -- -- -- -- -- -- -- --
WSDir -- -- -- -- -- -- -- -- -- -- -- -- -- --
WSSpd -- -- -- -- -- -- -- -- -- -- -- -- -- --

NOTE: LAMP data beyond the time of the TAF data is denoted as LAMP in Type and colored magenta.

Raw TAF
KMGW 011720Z 0118/0218 28005KT P6SM SCT250
  FM020200 20005KT P6SM BKN250
  FM021400 23010KT P6SM SCT250


Raw METAR
KMGW 012253Z 00000KT 10SM CLR M02/M10 A3029 RMK AO2 SLP273 T10221100
KMGW 012153Z 00000KT 10SM CLR M02/M11 A3029 RMK AO2 SLP272 T10221106
KMGW 012053Z 00000KT 10SM CLR M02/M11 A3029 RMK AO2 SLP275 T10171106 56013

METAR Board
Radar Display
Forecast Discussion

For situational awareness. Not to be used for flight planning purposes.